sensor_id;sensor_type;location;lat;lon;timestamp;P1;durP1;ratioP1;P2;durP2;ratioP2
29240;SDS011;16268;49.880;8.648;2022-09-09T00:01:51;5.97;;;1.13;;
29240;SDS011;16268;49.880;8.648;2022-09-09T00:16:00;3.53;;;1.00;;
29240;SDS011;16268;49.880;8.648;2022-09-09T00:21:11;4.45;;;1.13;;
29240;SDS011;16268;49.880;8.648;2022-09-09T00:23:51;3.03;;;0.88;;
29240;SDS011;16268;49.880;8.648;2022-09-09T00:29:43;4.50;;;1.20;;
29240;SDS011;16268;49.880;8.648;2022-09-09T00:31:55;3.67;;;1.00;;
29240;SDS011;16268;49.880;8.648;2022-09-09T00:34:24;4.80;;;1.15;;
29240;SDS011;16268;49.880;8.648;2022-09-09T00:36:53;3.95;;;1.10;;
29240;SDS011;16268;49.880;8.648;2022-09-09T00:39:37;4.15;;;1.13;;
29240;SDS011;16268;49.880;8.648;2022-09-09T00:44:56;4.50;;;0.95;;
29240;SDS011;16268;49.880;8.648;2022-09-09T00:47:39;4.53;;;1.20;;
29240;SDS011;16268;49.880;8.648;2022-09-09T00:55:54;4.00;;;1.15;;
29240;SDS011;16268;49.880;8.648;2022-09-09T00:58:25;3.22;;;0.85;;
29240;SDS011;16268;49.880;8.648;2022-09-09T01:00:54;5.38;;;1.05;;
29240;SDS011;16268;49.880;8.648;2022-09-09T01:03:46;5.53;;;1.00;;
29240;SDS011;16268;49.880;8.648;2022-09-09T01:06:22;6.53;;;1.10;;
29240;SDS011;16268;49.880;8.648;2022-09-09T01:09:13;3.93;;;1.00;;
29240;SDS011;16268;49.880;8.648;2022-09-09T01:12:38;5.35;;;1.17;;
29240;SDS011;16268;49.880;8.648;2022-09-09T01:28:45;5.25;;;1.05;;
29240;SDS011;16268;49.880;8.648;2022-09-09T01:31:15;6.45;;;1.48;;
29240;SDS011;16268;49.880;8.648;2022-09-09T01:33:44;4.07;;;1.13;;
29240;SDS011;16268;49.880;8.648;2022-09-09T01:36:12;4.68;;;1.10;;
29240;SDS011;16268;49.880;8.648;2022-09-09T01:38:49;4.40;;;1.20;;
29240;SDS011;16268;49.880;8.648;2022-09-09T01:41:15;4.90;;;1.20;;
29240;SDS011;16268;49.880;8.648;2022-09-09T01:43:40;5.10;;;1.42;;
29240;SDS011;16268;49.880;8.648;2022-09-09T01:46:06;6.05;;;1.05;;
29240;SDS011;16268;49.880;8.648;2022-09-09T01:48:32;6.22;;;1.40;;
29240;SDS011;16268;49.880;8.648;2022-09-09T01:50:58;5.55;;;1.30;;
29240;SDS011;16268;49.880;8.648;2022-09-09T01:53:24;5.55;;;1.08;;
29240;SDS011;16268;49.880;8.648;2022-09-09T01:56:02;3.67;;;1.30;;
29240;SDS011;16268;49.880;8.648;2022-09-09T01:59:09;5.00;;;1.50;;
29240;SDS011;16268;49.880;8.648;2022-09-09T02:04:27;4.72;;;1.38;;
29240;SDS011;16268;49.880;8.648;2022-09-09T02:06:57;4.10;;;1.50;;
29240;SDS011;16268;49.880;8.648;2022-09-09T02:09:24;4.00;;;1.40;;
29240;SDS011;16268;49.880;8.648;2022-09-09T02:11:59;4.70;;;1.52;;
29240;SDS011;16268;49.880;8.648;2022-09-09T02:14:34;6.55;;;1.40;;
29240;SDS011;16268;49.880;8.648;2022-09-09T02:17:07;4.25;;;1.40;;
29240;SDS011;16268;49.880;8.648;2022-09-09T02:19:37;7.28;;;1.10;;
29240;SDS011;16268;49.880;8.648;2022-09-09T02:22:11;4.55;;;1.30;;
29240;SDS011;16268;49.880;8.648;2022-09-09T02:24:39;5.10;;;1.40;;
29240;SDS011;16268;49.880;8.648;2022-09-09T02:27:06;6.85;;;1.50;;
29240;SDS011;16268;49.880;8.648;2022-09-09T02:29:34;5.97;;;1.50;;
29240;SDS011;16268;49.880;8.648;2022-09-09T02:34:31;7.85;;;1.60;;
29240;SDS011;16268;49.880;8.648;2022-09-09T02:37:01;6.40;;;1.30;;
29240;SDS011;16268;49.880;8.648;2022-09-09T02:39:28;5.00;;;1.30;;
29240;SDS011;16268;49.880;8.648;2022-09-09T02:41:54;5.28;;;1.35;;
29240;SDS011;16268;49.880;8.648;2022-09-09T02:44:20;5.78;;;1.27;;
29240;SDS011;16268;49.880;8.648;2022-09-09T02:54:40;3.65;;;1.20;;
29240;SDS011;16268;49.880;8.648;2022-09-09T02:57:11;5.70;;;1.25;;
29240;SDS011;16268;49.880;8.648;2022-09-09T02:59:37;3.75;;;1.20;;
29240;SDS011;16268;49.880;8.648;2022-09-09T03:02:04;4.75;;;1.35;;
29240;SDS011;16268;49.880;8.648;2022-09-09T03:04:29;5.55;;;1.63;;
29240;SDS011;16268;49.880;8.648;2022-09-09T03:06:56;4.18;;;1.20;;
29240;SDS011;16268;49.880;8.648;2022-09-09T03:09:23;4.20;;;1.15;;
29240;SDS011;16268;49.880;8.648;2022-09-09T03:11:49;5.60;;;1.40;;
29240;SDS011;16268;49.880;8.648;2022-09-09T03:14:15;4.10;;;1.50;;
29240;SDS011;16268;49.880;8.648;2022-09-09T03:16:41;6.53;;;1.50;;
29240;SDS011;16268;49.880;8.648;2022-09-09T03:19:08;6.32;;;1.25;;
29240;SDS011;16268;49.880;8.648;2022-09-09T03:21:34;6.93;;;1.40;;
29240;SDS011;16268;49.880;8.648;2022-09-09T03:24:00;4.15;;;1.40;;
29240;SDS011;16268;49.880;8.648;2022-09-09T03:26:28;6.50;;;1.20;;
29240;SDS011;16268;49.880;8.648;2022-09-09T03:28:54;4.72;;;1.10;;
29240;SDS011;16268;49.880;8.648;2022-09-09T03:31:19;3.80;;;1.30;;
29240;SDS011;16268;49.880;8.648;2022-09-09T03:33:45;4.53;;;1.35;;
29240;SDS011;16268;49.880;8.648;2022-09-09T03:36:11;3.25;;;0.90;;
29240;SDS011;16268;49.880;8.648;2022-09-09T03:38:36;8.13;;;1.52;;
29240;SDS011;16268;49.880;8.648;2022-09-09T03:41:02;4.65;;;1.60;;
29240;SDS011;16268;49.880;8.648;2022-09-09T03:43:28;5.70;;;1.27;;
29240;SDS011;16268;49.880;8.648;2022-09-09T03:45:55;6.40;;;1.30;;
29240;SDS011;16268;49.880;8.648;2022-09-09T03:48:24;4.43;;;1.07;;
29240;SDS011;16268;49.880;8.648;2022-09-09T03:50:51;5.47;;;1.50;;
29240;SDS011;16268;49.880;8.648;2022-09-09T03:53:19;5.85;;;1.48;;
29240;SDS011;16268;49.880;8.648;2022-09-09T03:55:46;4.78;;;1.35;;
29240;SDS011;16268;49.880;8.648;2022-09-09T03:58:13;9.02;;;1.52;;
29240;SDS011;16268;49.880;8.648;2022-09-09T04:00:40;9.90;;;1.65;;
29240;SDS011;16268;49.880;8.648;2022-09-09T04:03:07;4.35;;;1.10;;
29240;SDS011;16268;49.880;8.648;2022-09-09T04:05:33;7.82;;;1.52;;
29240;SDS011;16268;49.880;8.648;2022-09-09T04:07:59;4.38;;;1.33;;
29240;SDS011;16268;49.880;8.648;2022-09-09T04:10:25;5.82;;;1.58;;
29240;SDS011;16268;49.880;8.648;2022-09-09T04:12:51;6.47;;;1.40;;
29240;SDS011;16268;49.880;8.648;2022-09-09T04:15:17;4.75;;;1.42;;
29240;SDS011;16268;49.880;8.648;2022-09-09T04:17:43;3.30;;;1.42;;
29240;SDS011;16268;49.880;8.648;2022-09-09T04:20:09;4.72;;;1.05;;
29240;SDS011;16268;49.880;8.648;2022-09-09T04:22:37;5.00;;;1.50;;
29240;SDS011;16268;49.880;8.648;2022-09-09T04:25:04;6.72;;;1.85;;
29240;SDS011;16268;49.880;8.648;2022-09-09T04:27:30;4.65;;;1.20;;
29240;SDS011;16268;49.880;8.648;2022-09-09T04:29:56;4.43;;;1.13;;
29240;SDS011;16268;49.880;8.648;2022-09-09T04:32:22;5.82;;;1.10;;
29240;SDS011;16268;49.880;8.648;2022-09-09T04:34:49;4.25;;;1.10;;
29240;SDS011;16268;49.880;8.648;2022-09-09T04:37:14;6.43;;;1.40;;
29240;SDS011;16268;49.880;8.648;2022-09-09T04:39:40;7.38;;;1.63;;
29240;SDS011;16268;49.880;8.648;2022-09-09T04:42:06;4.72;;;1.20;;
29240;SDS011;16268;49.880;8.648;2022-09-09T04:44:32;6.25;;;1.30;;
29240;SDS011;16268;49.880;8.648;2022-09-09T04:46:57;3.78;;;1.33;;
29240;SDS011;16268;49.880;8.648;2022-09-09T04:49:23;6.68;;;1.65;;
29240;SDS011;16268;49.880;8.648;2022-09-09T04:51:48;4.85;;;1.45;;
29240;SDS011;16268;49.880;8.648;2022-09-09T04:54:14;5.18;;;1.50;;
29240;SDS011;16268;49.880;8.648;2022-09-09T04:56:40;4.47;;;1.40;;
29240;SDS011;16268;49.880;8.648;2022-09-09T04:59:07;4.10;;;1.13;;
29240;SDS011;16268;49.880;8.648;2022-09-09T05:01:32;4.45;;;1.33;;
29240;SDS011;16268;49.880;8.648;2022-09-09T05:03:58;5.03;;;1.40;;
29240;SDS011;16268;49.880;8.648;2022-09-09T05:06:24;6.47;;;1.30;;
29240;SDS011;16268;49.880;8.648;2022-09-09T05:08:50;4.30;;;1.15;;
29240;SDS011;16268;49.880;8.648;2022-09-09T05:11:20;5.25;;;1.20;;
29240;SDS011;16268;49.880;8.648;2022-09-09T05:13:50;4.50;;;1.00;;
29240;SDS011;16268;49.880;8.648;2022-09-09T05:16:16;5.53;;;1.17;;
29240;SDS011;16268;49.880;8.648;2022-09-09T05:18:43;5.82;;;1.15;;
29240;SDS011;16268;49.880;8.648;2022-09-09T05:21:12;5.75;;;1.10;;
29240;SDS011;16268;49.880;8.648;2022-09-09T05:23:39;5.25;;;1.27;;
29240;SDS011;16268;49.880;8.648;2022-09-09T05:26:05;4.38;;;1.20;;
29240;SDS011;16268;49.880;8.648;2022-09-09T05:28:33;4.75;;;1.20;;
29240;SDS011;16268;49.880;8.648;2022-09-09T05:31:00;3.15;;;1.00;;
29240;SDS011;16268;49.880;8.648;2022-09-09T05:33:29;3.55;;;0.95;;
29240;SDS011;16268;49.880;8.648;2022-09-09T05:36:00;6.30;;;1.20;;
29240;SDS011;16268;49.880;8.648;2022-09-09T05:38:29;4.93;;;1.50;;
29240;SDS011;16268;49.880;8.648;2022-09-09T05:40:56;5.97;;;1.50;;
29240;SDS011;16268;49.880;8.648;2022-09-09T05:43:22;4.43;;;1.13;;
29240;SDS011;16268;49.880;8.648;2022-09-09T05:45:57;4.75;;;1.15;;
29240;SDS011;16268;49.880;8.648;2022-09-09T05:48:29;5.70;;;1.02;;
29240;SDS011;16268;49.880;8.648;2022-09-09T05:50:56;5.57;;;1.20;;
29240;SDS011;16268;49.880;8.648;2022-09-09T05:53:21;4.95;;;1.25;;
29240;SDS011;16268;49.880;8.648;2022-09-09T05:55:47;5.38;;;1.10;;
29240;SDS011;16268;49.880;8.648;2022-09-09T05:58:13;5.47;;;1.27;;
29240;SDS011;16268;49.880;8.648;2022-09-09T06:00:40;4.97;;;1.20;;
29240;SDS011;16268;49.880;8.648;2022-09-09T06:03:05;4.50;;;1.40;;
29240;SDS011;16268;49.880;8.648;2022-09-09T06:05:31;4.95;;;1.20;;
29240;SDS011;16268;49.880;8.648;2022-09-09T06:07:58;5.97;;;1.08;;
29240;SDS011;16268;49.880;8.648;2022-09-09T06:10:24;4.75;;;1.20;;
29240;SDS011;16268;49.880;8.648;2022-09-09T06:12:51;5.80;;;1.17;;
29240;SDS011;16268;49.880;8.648;2022-09-09T06:15:17;2.95;;;1.10;;
29240;SDS011;16268;49.880;8.648;2022-09-09T06:17:43;3.50;;;1.00;;
29240;SDS011;16268;49.880;8.648;2022-09-09T06:20:10;6.20;;;1.17;;
29240;SDS011;16268;49.880;8.648;2022-09-09T06:22:36;5.15;;;1.30;;
29240;SDS011;16268;49.880;8.648;2022-09-09T06:25:03;6.15;;;1.20;;
29240;SDS011;16268;49.880;8.648;2022-09-09T06:27:29;5.13;;;1.10;;
29240;SDS011;16268;49.880;8.648;2022-09-09T06:29:55;4.80;;;1.30;;
29240;SDS011;16268;49.880;8.648;2022-09-09T06:32:21;3.97;;;1.00;;
29240;SDS011;16268;49.880;8.648;2022-09-09T06:34:46;5.47;;;1.10;;
29240;SDS011;16268;49.880;8.648;2022-09-09T06:37:14;5.70;;;1.40;;
29240;SDS011;16268;49.880;8.648;2022-09-09T06:39:39;4.32;;;1.10;;
29240;SDS011;16268;49.880;8.648;2022-09-09T06:42:05;4.75;;;0.98;;
29240;SDS011;16268;49.880;8.648;2022-09-09T06:44:33;6.40;;;1.40;;
29240;SDS011;16268;49.880;8.648;2022-09-09T06:46:59;3.60;;;1.17;;
29240;SDS011;16268;49.880;8.648;2022-09-09T06:49:24;5.15;;;1.10;;
29240;SDS011;16268;49.880;8.648;2022-09-09T06:51:50;6.57;;;1.13;;
29240;SDS011;16268;49.880;8.648;2022-09-09T06:54:17;2.72;;;0.93;;
29240;SDS011;16268;49.880;8.648;2022-09-09T06:56:43;5.28;;;1.10;;
29240;SDS011;16268;49.880;8.648;2022-09-09T06:59:10;4.38;;;1.17;;
29240;SDS011;16268;49.880;8.648;2022-09-09T07:01:40;4.15;;;1.13;;
29240;SDS011;16268;49.880;8.648;2022-09-09T07:04:08;3.67;;;1.13;;
29240;SDS011;16268;49.880;8.648;2022-09-09T07:06:37;3.60;;;1.00;;
29240;SDS011;16268;49.880;8.648;2022-09-09T07:09:05;6.57;;;1.40;;
29240;SDS011;16268;49.880;8.648;2022-09-09T07:11:34;5.75;;;1.10;;
29240;SDS011;16268;49.880;8.648;2022-09-09T07:14:03;6.25;;;1.13;;
29240;SDS011;16268;49.880;8.648;2022-09-09T07:16:29;6.32;;;1.00;;
29240;SDS011;16268;49.880;8.648;2022-09-09T07:18:56;4.50;;;1.20;;
29240;SDS011;16268;49.880;8.648;2022-09-09T07:21:25;4.00;;;1.13;;
29240;SDS011;16268;49.880;8.648;2022-09-09T07:23:52;3.65;;;1.10;;
29240;SDS011;16268;49.880;8.648;2022-09-09T07:26:19;5.10;;;1.13;;
29240;SDS011;16268;49.880;8.648;2022-09-09T07:28:46;4.75;;;1.35;;
29240;SDS011;16268;49.880;8.648;2022-09-09T07:31:35;7.40;;;1.65;;
29240;SDS011;16268;49.880;8.648;2022-09-09T07:34:03;6.43;;;1.30;;
29240;SDS011;16268;49.880;8.648;2022-09-09T07:36:31;5.60;;;1.42;;
29240;SDS011;16268;49.880;8.648;2022-09-09T07:38:59;7.05;;;1.20;;
29240;SDS011;16268;49.880;8.648;2022-09-09T07:41:28;4.03;;;1.10;;
29240;SDS011;16268;49.880;8.648;2022-09-09T07:43:56;4.75;;;1.13;;
29240;SDS011;16268;49.880;8.648;2022-09-09T07:46:24;4.63;;;1.30;;
29240;SDS011;16268;49.880;8.648;2022-09-09T07:48:52;6.30;;;1.38;;
29240;SDS011;16268;49.880;8.648;2022-09-09T07:51:20;6.38;;;1.48;;
29240;SDS011;16268;49.880;8.648;2022-09-09T07:53:52;5.80;;;1.23;;
29240;SDS011;16268;49.880;8.648;2022-09-09T07:56:19;6.55;;;1.70;;
29240;SDS011;16268;49.880;8.648;2022-09-09T07:58:48;6.73;;;1.33;;
29240;SDS011;16268;49.880;8.648;2022-09-09T08:01:19;5.20;;;1.25;;
29240;SDS011;16268;49.880;8.648;2022-09-09T08:03:51;6.10;;;1.40;;
29240;SDS011;16268;49.880;8.648;2022-09-09T08:06:26;7.17;;;1.50;;
29240;SDS011;16268;49.880;8.648;2022-09-09T08:08:53;7.80;;;1.40;;
29240;SDS011;16268;49.880;8.648;2022-09-09T08:11:20;8.30;;;1.58;;
29240;SDS011;16268;49.880;8.648;2022-09-09T08:13:47;5.00;;;1.15;;
29240;SDS011;16268;49.880;8.648;2022-09-09T08:16:16;6.35;;;1.65;;
29240;SDS011;16268;49.880;8.648;2022-09-09T08:18:43;4.10;;;1.10;;
29240;SDS011;16268;49.880;8.648;2022-09-09T08:23:42;6.38;;;1.40;;
29240;SDS011;16268;49.880;8.648;2022-09-09T08:26:11;6.38;;;1.38;;
29240;SDS011;16268;49.880;8.648;2022-09-09T08:28:41;7.60;;;1.70;;
29240;SDS011;16268;49.880;8.648;2022-09-09T08:31:15;6.35;;;1.63;;
29240;SDS011;16268;49.880;8.648;2022-09-09T08:33:43;7.03;;;1.55;;
29240;SDS011;16268;49.880;8.648;2022-09-09T08:36:11;6.35;;;1.42;;
29240;SDS011;16268;49.880;8.648;2022-09-09T08:38:42;4.38;;;1.40;;
29240;SDS011;16268;49.880;8.648;2022-09-09T08:52:15;6.57;;;1.58;;
29240;SDS011;16268;49.880;8.648;2022-09-09T08:54:44;6.28;;;1.35;;
29240;SDS011;16268;49.880;8.648;2022-09-09T08:57:12;5.75;;;1.13;;
29240;SDS011;16268;49.880;8.648;2022-09-09T08:59:43;7.20;;;1.70;;
29240;SDS011;16268;49.880;8.648;2022-09-09T09:08:16;5.95;;;1.27;;
29240;SDS011;16268;49.880;8.648;2022-09-09T09:10:46;10.55;;;2.25;;
29240;SDS011;16268;49.880;8.648;2022-09-09T09:13:19;7.88;;;2.00;;
29240;SDS011;16268;49.880;8.648;2022-09-09T09:15:57;7.78;;;2.10;;
29240;SDS011;16268;49.880;8.648;2022-09-09T09:18:26;10.07;;;2.30;;
29240;SDS011;16268;49.880;8.648;2022-09-09T09:23:45;10.68;;;2.50;;
29240;SDS011;16268;49.880;8.648;2022-09-09T09:26:23;9.23;;;2.03;;
29240;SDS011;16268;49.880;8.648;2022-09-09T09:28:54;10.90;;;2.35;;
29240;SDS011;16268;49.880;8.648;2022-09-09T09:31:22;8.25;;;2.00;;
29240;SDS011;16268;49.880;8.648;2022-09-09T09:33:52;8.52;;;2.20;;
29240;SDS011;16268;49.880;8.648;2022-09-09T09:36:19;5.63;;;1.67;;
29240;SDS011;16268;49.880;8.648;2022-09-09T09:38:57;8.20;;;1.50;;
29240;SDS011;16268;49.880;8.648;2022-09-09T09:41:32;8.27;;;1.80;;
29240;SDS011;16268;49.880;8.648;2022-09-09T09:44:00;7.35;;;1.42;;
29240;SDS011;16268;49.880;8.648;2022-09-09T09:46:27;8.05;;;1.50;;
29240;SDS011;16268;49.880;8.648;2022-09-09T09:49:02;7.25;;;1.55;;
29240;SDS011;16268;49.880;8.648;2022-09-09T09:51:30;5.43;;;1.30;;
29240;SDS011;16268;49.880;8.648;2022-09-09T09:56:38;6.20;;;1.30;;
29240;SDS011;16268;49.880;8.648;2022-09-09T09:59:05;5.30;;;1.30;;
29240;SDS011;16268;49.880;8.648;2022-09-09T10:01:32;7.70;;;1.42;;
29240;SDS011;16268;49.880;8.648;2022-09-09T10:04:21;5.07;;;1.25;;
29240;SDS011;16268;49.880;8.648;2022-09-09T10:06:48;6.88;;;1.25;;
29240;SDS011;16268;49.880;8.648;2022-09-09T10:09:21;5.70;;;1.27;;
29240;SDS011;16268;49.880;8.648;2022-09-09T10:14:20;4.60;;;1.08;;
29240;SDS011;16268;49.880;8.648;2022-09-09T10:20:00;7.47;;;1.40;;
29240;SDS011;16268;49.880;8.648;2022-09-09T10:22:47;6.13;;;1.05;;
29240;SDS011;16268;49.880;8.648;2022-09-09T10:25:21;5.13;;;1.40;;
29240;SDS011;16268;49.880;8.648;2022-09-09T10:28:04;6.65;;;1.20;;
29240;SDS011;16268;49.880;8.648;2022-09-09T10:36:39;6.95;;;1.52;;
29240;SDS011;16268;49.880;8.648;2022-09-09T10:39:21;4.57;;;1.20;;
29240;SDS011;16268;49.880;8.648;2022-09-09T10:44:50;8.57;;;1.88;;
29240;SDS011;16268;49.880;8.648;2022-09-09T10:55:50;5.07;;;1.30;;
29240;SDS011;16268;49.880;8.648;2022-09-09T11:01:27;8.32;;;1.77;;
29240;SDS011;16268;49.880;8.648;2022-09-09T11:04:10;9.18;;;1.90;;
29240;SDS011;16268;49.880;8.648;2022-09-09T11:06:45;6.10;;;1.40;;
29240;SDS011;16268;49.880;8.648;2022-09-09T11:09:14;7.75;;;1.27;;
29240;SDS011;16268;49.880;8.648;2022-09-09T11:14:21;5.95;;;1.33;;
29240;SDS011;16268;49.880;8.648;2022-09-09T11:17:00;5.85;;;1.50;;
29240;SDS011;16268;49.880;8.648;2022-09-09T11:21:59;5.35;;;1.17;;
29240;SDS011;16268;49.880;8.648;2022-09-09T11:24:41;7.60;;;1.60;;
29240;SDS011;16268;49.880;8.648;2022-09-09T11:27:31;6.38;;;1.35;;
29240;SDS011;16268;49.880;8.648;2022-09-09T11:30:21;8.77;;;1.55;;
29240;SDS011;16268;49.880;8.648;2022-09-09T11:38:06;6.68;;;1.63;;
29240;SDS011;16268;49.880;8.648;2022-09-09T11:40:56;6.35;;;1.33;;
29240;SDS011;16268;49.880;8.648;2022-09-09T11:46:07;6.68;;;1.65;;
29240;SDS011;16268;49.880;8.648;2022-09-09T11:48:35;5.18;;;1.30;;
29240;SDS011;16268;49.880;8.648;2022-09-09T11:51:09;6.25;;;1.40;;
29240;SDS011;16268;49.880;8.648;2022-09-09T11:53:48;6.38;;;1.50;;
29240;SDS011;16268;49.880;8.648;2022-09-09T11:56:23;3.95;;;1.55;;
29240;SDS011;16268;49.880;8.648;2022-09-09T12:01:43;6.47;;;1.23;;
29240;SDS011;16268;49.880;8.648;2022-09-09T12:07:18;6.00;;;1.40;;
29240;SDS011;16268;49.880;8.648;2022-09-09T12:09:48;6.70;;;1.38;;
29240;SDS011;16268;49.880;8.648;2022-09-09T12:12:36;8.52;;;1.35;;
29240;SDS011;16268;49.880;8.648;2022-09-09T12:17:41;5.00;;;1.17;;
29240;SDS011;16268;49.880;8.648;2022-09-09T12:25:48;6.40;;;1.52;;
29240;SDS011;16268;49.880;8.648;2022-09-09T12:28:22;4.78;;;1.30;;
29240;SDS011;16268;49.880;8.648;2022-09-09T12:31:02;5.25;;;1.30;;
29240;SDS011;16268;49.880;8.648;2022-09-09T12:33:43;6.78;;;1.55;;
29240;SDS011;16268;49.880;8.648;2022-09-09T12:36:13;6.57;;;1.30;;
29240;SDS011;16268;49.880;8.648;2022-09-09T12:38:49;7.15;;;1.35;;
29240;SDS011;16268;49.880;8.648;2022-09-09T12:41:21;8.00;;;1.40;;
29240;SDS011;16268;49.880;8.648;2022-09-09T12:44:02;5.63;;;0.95;;
29240;SDS011;16268;49.880;8.648;2022-09-09T12:46:36;5.57;;;1.17;;
29240;SDS011;16268;49.880;8.648;2022-09-09T12:52:04;5.63;;;1.13;;
29240;SDS011;16268;49.880;8.648;2022-09-09T12:54:34;3.38;;;0.90;;
29240;SDS011;16268;49.880;8.648;2022-09-09T12:57:01;4.68;;;0.90;;
29240;SDS011;16268;49.880;8.648;2022-09-09T12:59:34;3.30;;;0.90;;
29240;SDS011;16268;49.880;8.648;2022-09-09T13:04:43;4.80;;;1.00;;
29240;SDS011;16268;49.880;8.648;2022-09-09T13:07:12;4.90;;;1.17;;
29240;SDS011;16268;49.880;8.648;2022-09-09T13:09:38;4.47;;;1.20;;
29240;SDS011;16268;49.880;8.648;2022-09-09T13:12:04;4.72;;;0.90;;
29240;SDS011;16268;49.880;8.648;2022-09-09T13:14:38;4.63;;;0.73;;
29240;SDS011;16268;49.880;8.648;2022-09-09T13:17:04;5.18;;;0.98;;
29240;SDS011;16268;49.880;8.648;2022-09-09T13:19:37;3.85;;;0.85;;
29240;SDS011;16268;49.880;8.648;2022-09-09T13:22:14;4.38;;;1.00;;
29240;SDS011;16268;49.880;8.648;2022-09-09T13:27:35;1.60;;;0.47;;
29240;SDS011;16268;49.880;8.648;2022-09-09T13:33:03;3.17;;;1.02;;
29240;SDS011;16268;49.880;8.648;2022-09-09T13:35:29;4.60;;;0.88;;
29240;SDS011;16268;49.880;8.648;2022-09-09T13:37:55;2.85;;;0.57;;
29240;SDS011;16268;49.880;8.648;2022-09-09T13:40:22;2.40;;;0.80;;
29240;SDS011;16268;49.880;8.648;2022-09-09T13:42:51;3.58;;;1.13;;
29240;SDS011;16268;49.880;8.648;2022-09-09T13:45:20;1.95;;;0.75;;
29240;SDS011;16268;49.880;8.648;2022-09-09T13:47:48;2.63;;;0.50;;
29240;SDS011;16268;49.880;8.648;2022-09-09T13:50:25;3.78;;;1.10;;
29240;SDS011;16268;49.880;8.648;2022-09-09T13:52:53;1.70;;;0.47;;
29240;SDS011;16268;49.880;8.648;2022-09-09T13:55:21;3.67;;;1.00;;
29240;SDS011;16268;49.880;8.648;2022-09-09T13:58:02;2.92;;;1.00;;
29240;SDS011;16268;49.880;8.648;2022-09-09T14:00:30;6.07;;;1.40;;
29240;SDS011;16268;49.880;8.648;2022-09-09T14:02:57;4.30;;;1.00;;
29240;SDS011;16268;49.880;8.648;2022-09-09T14:05:22;4.20;;;1.13;;
29240;SDS011;16268;49.880;8.648;2022-09-09T14:07:48;3.78;;;1.08;;
29240;SDS011;16268;49.880;8.648;2022-09-09T14:10:14;5.88;;;1.40;;
29240;SDS011;16268;49.880;8.648;2022-09-09T14:12:40;3.55;;;1.05;;
29240;SDS011;16268;49.880;8.648;2022-09-09T14:15:06;4.18;;;1.00;;
29240;SDS011;16268;49.880;8.648;2022-09-09T14:17:34;3.88;;;0.73;;
29240;SDS011;16268;49.880;8.648;2022-09-09T14:20:01;4.60;;;0.90;;
29240;SDS011;16268;49.880;8.648;2022-09-09T14:22:28;4.25;;;0.90;;
29240;SDS011;16268;49.880;8.648;2022-09-09T14:24:54;2.55;;;0.70;;
29240;SDS011;16268;49.880;8.648;2022-09-09T14:27:19;4.47;;;1.05;;
29240;SDS011;16268;49.880;8.648;2022-09-09T14:29:45;3.28;;;0.80;;
29240;SDS011;16268;49.880;8.648;2022-09-09T14:32:11;3.85;;;0.80;;
29240;SDS011;16268;49.880;8.648;2022-09-09T14:34:37;3.03;;;0.80;;
29240;SDS011;16268;49.880;8.648;2022-09-09T14:37:03;2.65;;;0.70;;
29240;SDS011;16268;49.880;8.648;2022-09-09T14:39:28;2.90;;;0.95;;
29240;SDS011;16268;49.880;8.648;2022-09-09T14:41:54;4.75;;;1.15;;
29240;SDS011;16268;49.880;8.648;2022-09-09T14:44:20;5.20;;;1.10;;
29240;SDS011;16268;49.880;8.648;2022-09-09T14:46:47;3.97;;;1.10;;
29240;SDS011;16268;49.880;8.648;2022-09-09T14:49:15;3.03;;;0.85;;
29240;SDS011;16268;49.880;8.648;2022-09-09T14:51:40;2.95;;;0.77;;
29240;SDS011;16268;49.880;8.648;2022-09-09T14:54:06;4.63;;;0.90;;
29240;SDS011;16268;49.880;8.648;2022-09-09T14:56:32;4.57;;;1.30;;
29240;SDS011;16268;49.880;8.648;2022-09-09T14:58:59;4.03;;;1.92;;
29240;SDS011;16268;49.880;8.648;2022-09-09T15:01:26;4.03;;;1.40;;
29240;SDS011;16268;49.880;8.648;2022-09-09T15:03:54;3.47;;;1.00;;
29240;SDS011;16268;49.880;8.648;2022-09-09T15:06:22;4.28;;;1.00;;
29240;SDS011;16268;49.880;8.648;2022-09-09T15:08:49;4.05;;;0.82;;
29240;SDS011;16268;49.880;8.648;2022-09-09T15:11:17;4.35;;;0.73;;
29240;SDS011;16268;49.880;8.648;2022-09-09T15:13:43;4.38;;;0.85;;
29240;SDS011;16268;49.880;8.648;2022-09-09T15:16:13;6.60;;;1.58;;
29240;SDS011;16268;49.880;8.648;2022-09-09T15:18:43;3.92;;;1.60;;
29240;SDS011;16268;49.880;8.648;2022-09-09T15:21:10;4.40;;;1.33;;
29240;SDS011;16268;49.880;8.648;2022-09-09T15:23:37;3.67;;;1.10;;
29240;SDS011;16268;49.880;8.648;2022-09-09T15:26:04;3.30;;;0.82;;
29240;SDS011;16268;49.880;8.648;2022-09-09T15:28:34;4.40;;;0.90;;
29240;SDS011;16268;49.880;8.648;2022-09-09T15:31:04;4.28;;;0.85;;
29240;SDS011;16268;49.880;8.648;2022-09-09T15:33:31;2.83;;;0.80;;
29240;SDS011;16268;49.880;8.648;2022-09-09T15:35:57;5.93;;;0.98;;
29240;SDS011;16268;49.880;8.648;2022-09-09T15:38:23;3.10;;;0.80;;
29240;SDS011;16268;49.880;8.648;2022-09-09T15:40:53;3.17;;;0.70;;
29240;SDS011;16268;49.880;8.648;2022-09-09T15:43:20;4.35;;;1.08;;
29240;SDS011;16268;49.880;8.648;2022-09-09T15:45:46;5.25;;;1.10;;
29240;SDS011;16268;49.880;8.648;2022-09-09T15:48:13;5.93;;;1.20;;
29240;SDS011;16268;49.880;8.648;2022-09-09T15:50:39;3.70;;;0.88;;
29240;SDS011;16268;49.880;8.648;2022-09-09T15:53:04;3.50;;;1.00;;
29240;SDS011;16268;49.880;8.648;2022-09-09T15:55:31;4.78;;;1.25;;
29240;SDS011;16268;49.880;8.648;2022-09-09T15:57:56;4.13;;;0.98;;
29240;SDS011;16268;49.880;8.648;2022-09-09T16:00:22;3.55;;;1.17;;
29240;SDS011;16268;49.880;8.648;2022-09-09T16:02:48;4.53;;;0.98;;
29240;SDS011;16268;49.880;8.648;2022-09-09T16:05:14;4.38;;;0.90;;
29240;SDS011;16268;49.880;8.648;2022-09-09T16:07:40;5.38;;;0.98;;
29240;SDS011;16268;49.880;8.648;2022-09-09T16:10:07;4.35;;;1.02;;
29240;SDS011;16268;49.880;8.648;2022-09-09T16:12:33;4.35;;;0.90;;
29240;SDS011;16268;49.880;8.648;2022-09-09T16:14:59;1.95;;;0.65;;
29240;SDS011;16268;49.880;8.648;2022-09-09T16:17:25;4.18;;;1.30;;
29240;SDS011;16268;49.880;8.648;2022-09-09T16:19:50;2.67;;;0.70;;
29240;SDS011;16268;49.880;8.648;2022-09-09T16:22:16;1.73;;;0.60;;
29240;SDS011;16268;49.880;8.648;2022-09-09T16:24:42;3.65;;;0.80;;
29240;SDS011;16268;49.880;8.648;2022-09-09T16:27:10;1.73;;;0.60;;
29240;SDS011;16268;49.880;8.648;2022-09-09T16:29:36;3.58;;;0.60;;
29240;SDS011;16268;49.880;8.648;2022-09-09T16:32:01;4.15;;;0.80;;
29240;SDS011;16268;49.880;8.648;2022-09-09T16:34:27;2.70;;;0.90;;
29240;SDS011;16268;49.880;8.648;2022-09-09T16:36:53;4.65;;;1.00;;
29240;SDS011;16268;49.880;8.648;2022-09-09T16:39:19;3.25;;;0.77;;
29240;SDS011;16268;49.880;8.648;2022-09-09T16:41:45;3.58;;;0.80;;
29240;SDS011;16268;49.880;8.648;2022-09-09T16:44:13;3.90;;;0.70;;
29240;SDS011;16268;49.880;8.648;2022-09-09T16:46:44;2.50;;;0.60;;
29240;SDS011;16268;49.880;8.648;2022-09-09T16:49:12;2.15;;;0.70;;
29240;SDS011;16268;49.880;8.648;2022-09-09T16:51:41;3.90;;;0.90;;
29240;SDS011;16268;49.880;8.648;2022-09-09T16:54:09;2.50;;;0.77;;
29240;SDS011;16268;49.880;8.648;2022-09-09T16:56:36;2.80;;;1.00;;
29240;SDS011;16268;49.880;8.648;2022-09-09T16:59:06;4.00;;;0.80;;
29240;SDS011;16268;49.880;8.648;2022-09-09T17:01:35;4.03;;;0.70;;
29240;SDS011;16268;49.880;8.648;2022-09-09T17:04:03;5.43;;;1.10;;
29240;SDS011;16268;49.880;8.648;2022-09-09T17:06:30;2.40;;;0.63;;
29240;SDS011;16268;49.880;8.648;2022-09-09T17:09:00;3.67;;;0.80;;
29240;SDS011;16268;49.880;8.648;2022-09-09T17:11:28;4.55;;;1.02;;
29240;SDS011;16268;49.880;8.648;2022-09-09T17:13:54;6.82;;;0.93;;
29240;SDS011;16268;49.880;8.648;2022-09-09T17:16:22;2.53;;;0.82;;
29240;SDS011;16268;49.880;8.648;2022-09-09T17:18:49;3.70;;;0.90;;
29240;SDS011;16268;49.880;8.648;2022-09-09T17:21:17;4.72;;;1.10;;
29240;SDS011;16268;49.880;8.648;2022-09-09T17:23:44;5.00;;;1.00;;